Time;durP1;ratioP1;P1;durP2;ratioP2;P2;SDS_P1;SDS_P2;PMS_P1;PMS_P2;Temp;Humidity;BMP_temperature;BMP_pressure;BME280_temperature;BME280_humidity;BME280_pressure;Samples;Min_cycle;Max_cycle;Signal;HPM_P1;HPM_P2
2023/04/18 00:01:58;;;;;;;4.67;2.80;;;;;;;10.13;49.13;100796.77;1705603;84;21081;-56
2023/04/18 00:04:28;;;;;;;5.20;2.47;;;;;;;10.11;49.65;100789.25;1705485;84;21092;-57
2023/04/18 00:06:57;;;;;;;8.18;2.40;;;;;;;10.08;50.21;100796.47;1715455;83;21041;-57
2023/04/18 00:09:25;;;;;;;5.20;2.20;;;;;;;10.04;50.11;100785.03;1705553;84;21041;-56
2023/04/18 00:11:54;;;;;;;10.18;2.77;;;;;;;10.02;50.60;100786.26;1705637;84;21077;-56
2023/04/18 00:14:23;;;;;;;9.68;2.83;;;;;;;10.00;50.55;100796.54;1715229;84;21475;-56
2023/04/18 00:16:52;;;;;;;7.65;3.08;;;;;;;9.98;50.85;100787.66;1709177;84;21048;-56
2023/04/18 00:19:21;;;;;;;5.85;2.45;;;;;;;9.99;51.19;100794.84;1705639;84;21073;-57
2023/04/18 00:21:52;;;;;;;6.05;2.50;;;;;;;9.94;51.09;100791.28;1708976;84;21491;-57
2023/04/18 00:24:21;;;;;;;4.62;2.60;;;;;;;9.92;51.10;100795.24;1705835;84;21013;-56
2023/04/18 00:26:49;;;;;;;5.30;3.00;;;;;;;9.91;50.79;100793.54;1705457;84;21089;-56
2023/04/18 00:29:18;;;;;;;7.65;3.00;;;;;;;9.89;51.03;100794.23;1705485;84;21496;-56
2023/04/18 00:31:46;;;;;;;6.58;2.92;;;;;;;9.85;51.30;100793.23;1705606;83;21047;-57
2023/04/18 00:34:15;;;;;;;7.10;3.55;;;;;;;9.82;51.33;100793.61;1705635;84;21062;-57
2023/04/18 00:36:46;;;;;;;6.20;3.00;;;;;;;9.79;51.46;100795.34;1705461;84;22258;-57
2023/04/18 00:39:15;;;;;;;5.50;2.62;;;;;;;9.75;51.25;100791.75;1705582;84;21506;-57
2023/04/18 00:41:45;;;;;;;3.60;2.02;;;;;;;9.72;50.94;100794.86;1709828;84;21469;-56
2023/04/18 00:44:13;;;;;;;3.75;2.27;;;;;;;9.73;50.44;100792.45;1705456;84;21468;-57
2023/04/18 00:46:43;;;;;;;3.62;2.02;;;;;;;9.76;49.49;100790.23;1705670;84;21038;-56
2023/04/18 00:49:11;;;;;;;5.53;2.80;;;;;;;9.80;49.76;100784.73;1705520;84;21518;-57
2023/04/18 00:51:40;;;;;;;5.05;2.70;;;;;;;9.82;50.12;100794.13;1705678;84;21065;-56
2023/04/18 00:54:11;;;;;;;5.83;2.20;;;;;;;9.81;50.54;100784.21;1708521;84;21042;-57
2023/04/18 00:56:40;;;;;;;4.08;2.10;;;;;;;9.78;50.53;100783.20;1705525;84;21042;-58
2023/04/18 00:59:10;;;;;;;6.55;2.33;;;;;;;9.76;50.26;100783.91;1705468;84;21137;-57
2023/04/18 01:01:42;;;;;;;4.28;2.22;;;;;;;9.75;50.16;100781.69;1705470;84;21034;-57
2023/04/18 01:04:10;;;;;;;4.42;2.25;;;;;;;9.74;50.14;100778.59;1705427;84;21037;-57
2023/04/18 01:06:42;;;;;;;4.83;2.10;;;;;;;9.73;50.32;100778.77;1705784;84;21033;-58
2023/04/18 01:09:12;;;;;;;6.47;2.33;;;;;;;9.71;49.95;100772.63;1705671;84;21971;-56
2023/04/18 01:11:41;;;;;;;5.17;2.15;;;;;;;9.67;50.53;100778.98;1714791;84;21456;-56
2023/04/18 01:14:11;;;;;;;3.87;2.08;;;;;;;9.65;50.67;100782.42;1705452;84;21454;-56
2023/04/18 01:16:41;;;;;;;5.58;2.58;;;;;;;9.63;50.30;100776.28;1715502;83;21041;-56
2023/04/18 01:19:13;;;;;;;3.70;2.20;;;;;;;9.61;50.46;100782.97;1715448;83;21049;-56
2023/04/18 01:21:42;;;;;;;7.35;2.62;;;;;;;9.58;50.49;100778.71;1705481;84;21643;-56
2023/04/18 01:24:14;;;;;;;4.10;2.00;;;;;;;9.56;50.32;100779.92;1715400;84;21104;-55
2023/04/18 01:26:46;;;;;;;5.33;2.30;;;;;;;9.54;50.70;100777.38;1715368;83;21053;-57
2023/04/18 01:29:14;;;;;;;6.12;2.05;;;;;;;9.52;51.23;100776.70;1705274;84;21033;-56
2023/04/18 01:31:43;;;;;;;6.22;2.00;;;;;;;9.50;51.00;100781.50;1710084;84;21077;-58
2023/04/18 01:34:16;;;;;;;5.80;2.70;;;;;;;9.48;50.95;100781.69;1715035;83;21069;-57
2023/04/18 01:36:45;;;;;;;7.25;2.60;;;;;;;9.45;51.51;100778.47;1715184;84;21456;-56
2023/04/18 01:39:14;;;;;;;6.58;2.42;;;;;;;9.44;51.58;100777.61;1714918;84;21025;-55
2023/04/18 01:41:42;;;;;;;5.08;2.50;;;;;;;9.43;51.18;100779.16;1715068;83;21531;-57
2023/04/18 01:44:11;;;;;;;5.40;2.45;;;;;;;9.41;51.11;100782.08;1715090;83;21445;-57
2023/04/18 01:46:40;;;;;;;5.60;2.30;;;;;;;9.39;51.14;100780.04;1714994;83;21555;-57
2023/04/18 01:49:09;;;;;;;5.45;2.30;;;;;;;9.37;51.47;100778.00;1714955;84;21084;-56
2023/04/18 01:51:38;;;;;;;4.75;2.60;;;;;;;9.35;51.56;100777.33;1714843;83;21470;-57
2023/04/18 01:54:07;;;;;;;6.60;3.27;;;;;;;9.33;51.76;100779.39;1715001;83;21066;-59
2023/04/18 01:56:36;;;;;;;4.78;2.42;;;;;;;9.28;52.17;100783.19;1714774;84;21098;-57
2023/04/18 01:59:04;;;;;;;5.53;2.40;;;;;;;9.26;51.95;100778.92;1715159;83;21073;-56
2023/04/18 02:01:33;;;;;;;7.25;2.60;;;;;;;9.24;52.11;100780.99;1714967;84;21446;-57
2023/04/18 02:04:01;;;;;;;5.78;3.08;;;;;;;9.20;52.43;100775.88;1715043;83;21037;-56
2023/04/18 02:06:31;;;;;;;8.05;2.95;;;;;;;9.19;52.89;100777.43;1714985;83;21048;-57
2023/04/18 02:09:00;;;;;;;8.65;3.10;;;;;;;9.16;53.04;100769.07;1714890;84;21037;-57
2023/04/18 02:11:30;;;;;;;9.58;3.22;;;;;;;9.14;53.02;100767.55;1715253;83;21449;-58
2023/04/18 02:14:00;;;;;;;7.25;3.10;;;;;;;9.11;53.69;100770.13;1714364;84;21460;-57
2023/04/18 02:16:28;;;;;;;6.42;3.02;;;;;;;9.07;53.44;100769.27;1714913;84;21049;-57
2023/04/18 02:18:57;;;;;;;8.85;2.90;;;;;;;9.06;53.45;100771.66;1714477;84;21061;-57
2023/04/18 02:21:25;;;;;;;8.15;3.10;;;;;;;9.03;53.39;100763.30;1714617;84;21065;-57
2023/04/18 02:23:55;;;;;;;10.05;2.70;;;;;;;9.04;53.39;100769.11;1715049;84;21491;-57
2023/04/18 02:26:23;;;;;;;5.87;2.62;;;;;;;9.04;53.57;100769.63;1714923;83;21645;-55
2023/04/18 02:28:52;;;;;;;10.00;2.98;;;;;;;9.02;53.39;100772.53;1714967;84;21077;-56
2023/04/18 02:31:22;;;;;;;5.55;2.45;;;;;;;9.00;53.42;100772.37;1714964;83;21084;-56
2023/04/18 02:33:52;;;;;;;5.05;2.58;;;;;;;9.00;53.57;100771.02;1705241;84;21453;-55
2023/04/18 02:36:22;;;;;;;6.28;2.08;;;;;;;8.98;53.52;100772.55;1705634;84;21460;-56
2023/04/18 02:38:51;;;;;;;6.47;2.70;;;;;;;8.96;53.62;100773.25;1705562;84;21081;-56
2023/04/18 02:41:22;;;;;;;4.87;2.50;;;;;;;8.95;53.80;100766.59;1714292;84;21546;-57
2023/04/18 02:43:51;;;;;;;5.20;2.65;;;;;;;8.92;54.09;100771.05;1705667;84;21036;-56
2023/04/18 02:46:20;;;;;;;5.95;2.67;;;;;;;8.89;54.33;100767.64;1715291;83;20993;-55
2023/04/18 02:48:49;;;;;;;5.30;2.40;;;;;;;8.88;54.08;100770.55;1715190;84;21081;-56
2023/04/18 02:51:18;;;;;;;5.80;2.75;;;;;;;8.87;54.59;100775.17;1685149;84;21587;-57
2023/04/18 02:53:47;;;;;;;4.65;2.50;;;;;;;8.84;54.42;100768.69;1705398;84;21097;-57
2023/04/18 02:56:17;;;;;;;5.78;2.60;;;;;;;8.81;54.77;100772.30;1714508;83;21044;-56
2023/04/18 02:59:05;;;;;;;4.78;2.35;;;;;;;8.80;54.83;100771.95;1705616;84;21073;-57
2023/04/18 03:01:38;;;;;;;4.62;2.33;;;;;;;8.79;54.65;100768.89;1703218;84;21081;-56
2023/04/18 03:04:11;;;;;;;5.37;2.65;;;;;;;8.78;54.58;100771.28;1705013;83;21006;-59
2023/04/18 03:06:42;;;;;;;6.97;2.77;;;;;;;8.78;55.02;100772.13;1707264;83;21098;-56
2023/04/18 03:09:15;;;;;;;7.90;2.72;;;;;;;8.78;55.15;100771.28;1705547;84;21482;-59
2023/04/18 03:11:48;;;;;;;5.25;2.70;;;;;;;8.77;54.94;100769.58;1704899;84;21054;-58
2023/04/18 03:14:19;;;;;;;5.15;2.60;;;;;;;8.77;55.05;100772.31;1687752;84;21077;-57
2023/04/18 03:16:50;;;;;;;7.58;2.85;;;;;;;8.78;54.85;100765.81;1707069;84;21029;-57
2023/04/18 03:19:22;;;;;;;7.35;2.50;;;;;;;8.79;54.89;100767.52;1707601;84;21061;-57
2023/04/18 03:21:52;;;;;;;8.33;2.65;;;;;;;8.80;55.09;100764.61;1706283;84;21449;-56
2023/04/18 03:24:20;;;;;;;7.03;2.95;;;;;;;8.81;55.04;100758.63;1705249;84;21464;-56
2023/04/18 03:26:51;;;;;;;10.82;2.75;;;;;;;8.81;55.06;100769.56;1705604;84;21469;-55
2023/04/18 03:29:21;;;;;;;6.47;2.87;;;;;;;8.83;55.05;100770.23;1705426;84;21069;-56
2023/04/18 03:31:51;;;;;;;6.17;2.77;;;;;;;8.84;54.97;100775.52;1715192;83;21567;-56
2023/04/18 03:34:20;;;;;;;7.75;2.83;;;;;;;8.86;54.86;100772.61;1715313;83;21429;-56
2023/04/18 03:36:49;;;;;;;9.05;2.65;;;;;;;8.85;54.50;100775.86;1708565;84;21496;-57
2023/04/18 03:39:20;;;;;;;7.37;3.12;;;;;;;8.84;54.55;100770.57;1705043;84;21469;-56
2023/04/18 03:41:49;;;;;;;4.72;2.77;;;;;;;8.87;54.87;100777.90;1705250;84;21469;-58
2023/04/18 03:44:18;;;;;;;8.00;2.75;;;;;;;8.88;54.22;100774.14;1685310;84;21069;-55
2023/04/18 03:46:46;;;;;;;7.08;3.00;;;;;;;8.90;54.21;100779.42;1705392;84;21052;-57
2023/04/18 03:49:15;;;;;;;6.08;3.02;;;;;;;8.92;53.85;100779.25;1705563;84;21069;-56
2023/04/18 03:51:46;;;;;;;5.95;2.72;;;;;;;8.93;53.88;100778.22;1715611;83;21453;-57
2023/04/18 03:54:15;;;;;;;6.47;2.90;;;;;;;8.95;54.11;100783.84;1715137;84;21078;-57
2023/04/18 03:56:44;;;;;;;8.38;3.05;;;;;;;8.96;54.21;100781.45;1714154;84;21530;-56
2023/04/18 03:59:15;;;;;;;4.72;2.87;;;;;;;8.98;53.96;100783.48;1704960;84;21041;-58
2023/04/18 04:01:45;;;;;;;4.80;2.52;;;;;;;9.01;53.52;100780.91;1705422;84;21077;-57
2023/04/18 04:04:15;;;;;;;10.65;3.20;;;;;;;9.03;54.00;100776.97;1705582;84;21077;-57
2023/04/18 04:06:44;;;;;;;7.42;2.37;;;;;;;9.07;53.15;100782.93;1705398;84;21542;-57
2023/04/18 04:09:14;;;;;;;8.90;3.10;;;;;;;9.07;53.25;100786.52;1705346;84;21572;-55
2023/04/18 04:11:45;;;;;;;5.72;2.77;;;;;;;9.10;53.29;100778.47;1705288;84;21101;-57
2023/04/18 04:14:14;;;;;;;4.78;2.70;;;;;;;9.14;53.07;100783.95;1705319;84;21045;-57
2023/04/18 04:16:45;;;;;;;5.75;2.90;;;;;;;9.16;52.79;100780.01;1714581;83;21080;-56
2023/04/18 04:19:15;;;;;;;12.90;3.25;;;;;;;9.18;52.48;100784.78;1705310;84;21025;-57
2023/04/18 04:21:46;;;;;;;6.42;2.85;;;;;;;9.19;52.25;100782.38;1704749;84;21018;-55
2023/04/18 04:24:15;;;;;;;7.08;2.80;;;;;;;9.20;52.61;100779.98;1705390;84;21105;-58
2023/04/18 04:26:47;;;;;;;8.53;3.30;;;;;;;9.24;52.47;100776.89;1705366;84;21053;-58
2023/04/18 04:29:17;;;;;;;6.53;2.83;;;;;;;9.26;52.23;100769.36;1715198;83;21044;-58
2023/04/18 04:31:47;;;;;;;7.78;2.83;;;;;;;9.29;52.53;100773.09;1715183;83;21076;-56
2023/04/18 04:34:18;;;;;;;7.05;3.10;;;;;;;9.32;52.14;100777.69;1704677;84;21469;-57
2023/04/18 04:36:47;;;;;;;8.60;3.27;;;;;;;9.34;52.21;100776.14;1715345;83;21472;-58
2023/04/18 04:39:16;;;;;;;7.80;2.87;;;;;;;9.36;52.13;100771.34;1715450;83;21073;-56
2023/04/18 04:41:52;;;;;;;7.33;3.22;;;;;;;9.38;52.08;100768.77;1704626;84;21497;-56
2023/04/18 04:44:24;;;;;;;11.10;3.87;;;;;;;9.42;52.08;100772.84;1705739;83;21062;-57
2023/04/18 04:46:53;;;;;;;6.17;3.20;;;;;;;9.46;52.08;100777.44;1705430;84;21454;-56
2023/04/18 04:49:23;;;;;;;5.60;3.00;;;;;;;9.49;52.25;100772.97;1712844;84;21053;-57
2023/04/18 04:51:53;;;;;;;5.42;3.10;;;;;;;9.54;52.21;100777.38;1705774;84;21109;-58
2023/04/18 04:54:22;;;;;;;8.58;3.27;;;;;;;9.59;51.85;100784.52;1705379;84;21203;-57
2023/04/18 04:56:51;;;;;;;8.25;3.42;;;;;;;9.63;51.94;100781.75;1705620;84;21077;-58
2023/04/18 04:59:22;;;;;;;7.42;3.20;;;;;;;9.65;51.83;100792.52;1715452;83;21080;-58
2023/04/18 05:01:50;;;;;;;9.68;3.30;;;;;;;9.68;51.94;100792.16;1705316;83;21505;-58
2023/04/18 05:04:20;;;;;;;13.78;3.55;;;;;;;9.73;51.73;100793.30;1705374;84;21555;-57
2023/04/18 05:06:49;;;;;;;9.88;3.40;;;;;;;9.77;52.05;100794.67;1715501;83;21057;-57
2023/04/18 05:09:18;;;;;;;6.25;3.30;;;;;;;9.83;51.74;100786.25;1705450;83;21517;-56
2023/04/18 05:11:48;;;;;;;8.05;3.10;;;;;;;9.88;51.42;100787.91;1705449;84;21061;-55
2023/04/18 05:14:19;;;;;;;14.83;3.58;;;;;;;9.92;51.26;100789.77;1709563;83;21068;-55
2023/04/18 05:16:48;;;;;;;11.15;3.77;;;;;;;9.96;51.14;100788.36;1733970;82;21464;-57
2023/04/18 05:19:16;;;;;;;8.05;3.22;;;;;;;10.02;51.33;100794.47;1733752;83;21040;-57
2023/04/18 05:21:45;;;;;;;9.55;3.30;;;;;;;10.08;51.31;100796.47;1733937;82;21060;-57
2023/04/18 05:24:14;;;;;;;6.47;3.60;;;;;;;10.14;51.13;100798.47;1733815;83;20985;-57
2023/04/18 05:26:43;;;;;;;7.83;3.30;;;;;;;10.18;50.83;100802.02;1733685;83;21079;-60
2023/04/18 05:29:14;;;;;;;10.00;3.80;;;;;;;10.23;50.92;100796.53;1733797;83;21056;-56
2023/04/18 05:31:42;;;;;;;12.80;4.05;;;;;;;10.27;51.60;100802.82;1731316;83;21047;-57
2023/04/18 05:34:11;;;;;;;7.65;3.40;;;;;;;10.32;51.11;100799.01;1710307;83;21501;-56
2023/04/18 05:36:40;;;;;;;6.50;3.33;;;;;;;10.36;51.30;100800.34;1710112;83;21033;-58
2023/04/18 05:39:09;;;;;;;13.35;3.42;;;;;;;10.42;51.25;100798.25;1709699;83;21017;-57
2023/04/18 05:41:38;;;;;;;7.37;3.70;;;;;;;10.44;50.93;100792.06;1709936;83;22065;-60
2023/04/18 05:44:07;;;;;;;7.95;3.58;;;;;;;10.44;51.15;100792.06;1710190;83;21129;-56
2023/04/18 05:46:35;;;;;;;52.50;6.03;;;;;;;10.46;51.42;100794.62;1710007;83;21058;-57
2023/04/18 05:49:04;;;;;;;10.23;4.35;;;;;;;10.53;51.23;100800.20;1710196;84;21077;-56
2023/04/18 05:51:33;;;;;;;7.90;3.22;;;;;;;10.60;51.24;100798.41;1710111;83;21037;-56
2023/04/18 05:54:01;;;;;;;8.30;3.35;;;;;;;10.67;51.00;100804.83;1710103;83;21053;-56
2023/04/18 05:56:30;;;;;;;6.92;3.47;;;;;;;10.74;50.78;100801.15;1709945;83;21076;-59
2023/04/18 05:58:59;;;;;;;8.13;3.10;;;;;;;10.80;50.10;100798.17;1709973;83;21053;-58
2023/04/18 06:01:28;;;;;;;8.38;3.75;;;;;;;10.86;49.89;100794.67;1710112;83;21501;-58
2023/04/18 06:03:56;;;;;;;6.22;3.27;;;;;;;10.91;49.73;100789.98;1709996;83;21523;-57
2023/04/18 06:06:25;;;;;;;12.68;3.35;;;;;;;10.95;49.24;100785.83;1709993;83;21065;-57
2023/04/18 06:08:54;;;;;;;9.48;3.58;;;;;;;10.97;49.16;100790.08;1710326;83;21065;-56
2023/04/18 06:11:23;;;;;;;13.80;3.72;;;;;;;11.03;49.34;100793.42;1710337;83;21101;-57
2023/04/18 06:13:54;;;;;;;6.47;2.90;;;;;;;11.07;48.17;100786.55;1709996;83;21083;-57
2023/04/18 06:16:23;;;;;;;11.80;3.42;;;;;;;11.08;48.56;100793.73;1710127;84;21500;-59
2023/04/18 06:18:52;;;;;;;7.20;3.27;;;;;;;11.14;48.80;100792.63;1710113;83;21429;-58
2023/04/18 06:21:21;;;;;;;10.48;3.08;;;;;;;11.22;48.22;100790.63;1710221;83;21437;-57
2023/04/18 06:23:49;;;;;;;6.75;2.95;;;;;;;11.28;47.95;100790.39;1710192;84;21503;-56
2023/04/18 06:26:18;;;;;;;7.30;2.87;;;;;;;11.33;47.79;100785.17;1710226;84;21029;-56
2023/04/18 06:28:46;;;;;;;6.78;3.22;;;;;;;11.37;47.82;100791.45;1710168;83;21094;-59
2023/04/18 06:31:15;;;;;;;6.25;3.25;;;;;;;11.43;47.81;100793.94;1710143;83;21480;-57
2023/04/18 06:33:45;;;;;;;10.30;3.27;;;;;;;11.51;48.07;100788.33;1711142;83;21531;-58
2023/04/18 06:36:14;;;;;;;8.58;2.85;;;;;;;11.63;48.00;100794.16;1711469;83;21064;-58
2023/04/18 06:38:43;;;;;;;6.72;3.10;;;;;;;11.73;47.65;100787.33;1692697;84;21006;-58
2023/04/18 06:41:17;;;;;;;9.45;3.52;;;;;;;11.82;47.17;100794.09;1712611;83;21014;-57
2023/04/18 06:43:43;;;;;;;18.98;3.80;;;;;;;11.86;46.81;100792.66;1710996;83;21045;-57
2023/04/18 06:46:13;;;;;;;13.98;3.40;;;;;;;11.89;46.84;100799.13;1707853;84;21069;-58
2023/04/18 06:48:42;;;;;;;8.28;3.52;;;;;;;11.94;46.55;100792.00;1710096;83;21029;-57
2023/04/18 06:51:11;;;;;;;10.05;3.30;;;;;;;11.95;46.81;100789.58;1710340;83;21033;-59
2023/04/18 06:53:40;;;;;;;14.15;3.35;;;;;;;11.94;47.13;100789.25;1710240;83;21081;-59
2023/04/18 06:56:08;;;;;;;6.45;3.25;;;;;;;12.00;47.39;100791.20;1710004;83;21517;-59
2023/04/18 06:58:37;;;;;;;7.40;3.10;;;;;;;12.15;47.20;100787.53;1690299;84;21697;-58
2023/04/18 07:01:05;;;;;;;9.53;3.10;;;;;;;12.26;47.02;100793.33;1710182;83;21562;-57
2023/04/18 07:03:34;;;;;;;12.50;3.45;;;;;;;12.33;46.94;100796.98;1709996;83;21038;-60
2023/04/18 07:06:03;;;;;;;6.47;2.98;;;;;;;12.40;46.91;100796.21;1710073;83;21176;-59
2023/04/18 07:08:33;;;;;;;9.58;3.10;;;;;;;12.41;46.15;100788.29;1710125;83;21531;-57
2023/04/18 07:11:01;;;;;;;5.80;2.90;;;;;;;12.38;46.68;100793.13;1709575;83;21853;-58
2023/04/18 07:13:30;;;;;;;5.33;2.62;;;;;;;12.42;47.05;100791.36;1710153;83;21053;-57
2023/04/18 07:15:59;;;;;;;7.42;3.22;;;;;;;12.49;47.02;100797.75;1710443;83;21522;-59
2023/04/18 07:18:28;;;;;;;4.97;2.90;;;;;;;12.49;46.71;100796.37;1709933;83;22068;-58
2023/04/18 07:20:59;;;;;;;4.05;2.52;;;;;;;12.48;46.78;100796.91;1708924;83;21061;-58
2023/04/18 07:23:27;;;;;;;9.48;3.33;;;;;;;12.46;46.98;100790.77;1709882;83;21029;-59
2023/04/18 07:25:58;;;;;;;7.83;3.10;;;;;;;12.48;46.82;100789.19;1710040;83;21551;-58
2023/04/18 07:28:27;;;;;;;8.98;2.60;;;;;;;12.51;46.95;100790.16;1710205;84;21480;-58
2023/04/18 07:30:57;;;;;;;16.57;3.45;;;;;;;12.58;47.02;100789.67;1710024;83;21477;-58
2023/04/18 07:33:30;;;;;;;9.03;2.95;;;;;;;12.65;47.29;100782.32;1709328;83;21037;-57
2023/04/18 07:35:57;;;;;;;14.80;3.40;;;;;;;12.74;47.07;100785.23;1707817;84;21113;-58
2023/04/18 07:38:27;;;;;;;9.18;2.77;;;;;;;12.80;47.10;100790.45;1707999;83;21563;-57
2023/04/18 07:40:57;;;;;;;10.85;2.98;;;;;;;12.88;46.85;100778.75;1708100;83;21146;-59
2023/04/18 07:43:25;;;;;;;16.60;3.15;;;;;;;12.96;46.35;100781.33;1707960;84;21096;-58
2023/04/18 07:45:54;;;;;;;6.85;2.75;;;;;;;13.05;45.74;100791.67;1708125;83;21092;-57
2023/04/18 07:48:24;;;;;;;8.80;3.35;;;;;;;13.11;45.83;100783.97;1707977;83;21438;-57
2023/04/18 07:50:53;;;;;;;9.48;2.67;;;;;;;13.27;46.15;100782.80;1708153;83;21069;-59
2023/04/18 07:53:22;;;;;;;8.88;2.80;;;;;;;13.58;45.68;100782.26;1708221;84;21029;-57
2023/04/18 07:55:50;;;;;;;11.28;2.72;;;;;;;13.86;45.11;100792.62;1726301;82;21035;-60
2023/04/18 07:58:20;;;;;;;11.05;2.72;;;;;;;14.03;43.92;100787.55;1729764;82;21035;-59
2023/04/18 08:00:49;;;;;;;10.93;2.70;;;;;;;14.03;44.34;100790.30;1745836;82;21133;-57
2023/04/18 08:03:17;;;;;;;11.20;2.85;;;;;;;14.04;43.46;100782.36;1727332;82;21585;-59
2023/04/18 08:05:47;;;;;;;9.88;2.70;;;;;;;13.98;43.61;100783.20;1690017;84;21000;-58
2023/04/18 08:08:16;;;;;;;11.55;2.62;;;;;;;13.91;43.59;100776.31;1723618;83;20991;-57
2023/04/18 08:10:46;;;;;;;9.80;2.67;;;;;;;13.89;43.72;100780.33;1724023;83;20991;-57
2023/04/18 08:13:16;;;;;;;10.10;3.00;;;;;;;13.87;44.33;100779.16;1747757;81;21472;-57
2023/04/18 08:15:46;;;;;;;7.67;2.85;;;;;;;13.88;44.36;100781.39;1749048;82;21041;-58
2023/04/18 08:18:14;;;;;;;6.65;3.90;;;;;;;13.85;44.58;100774.92;1724341;82;21080;-58
2023/04/18 08:20:43;;;;;;;12.35;3.05;;;;;;;13.85;44.65;100769.41;1717860;83;21502;-61
2023/04/18 08:23:13;;;;;;;10.15;2.40;;;;;;;13.84;44.33;100774.08;1717669;83;21483;-59
2023/04/18 08:25:42;;;;;;;7.50;2.87;;;;;;;13.76;44.40;100766.55;1717225;83;21071;-57
2023/04/18 08:28:12;;;;;;;6.65;2.45;;;;;;;13.65;44.62;100769.35;1719692;81;21028;-58
2023/04/18 08:30:41;;;;;;;9.30;2.42;;;;;;;13.60;45.28;100771.35;1749340;82;21394;-57
2023/04/18 08:33:10;;;;;;;6.45;2.30;;;;;;;13.60;45.41;100769.13;1746068;82;21366;-59
2023/04/18 08:35:39;;;;;;;10.40;2.95;;;;;;;13.54;45.31;100769.44;1724212;83;20972;-59
2023/04/18 08:38:09;;;;;;;8.78;2.30;;;;;;;13.47;44.93;100763.06;1723812;83;21789;-59
2023/04/18 08:40:37;;;;;;;8.70;2.37;;;;;;;13.43;45.01;100761.78;1724021;83;20992;-58
2023/04/18 08:43:11;;;;;;;7.22;2.50;;;;;;;13.43;45.42;100763.16;1724349;83;21391;-57
2023/04/18 08:45:43;;;;;;;12.55;2.67;;;;;;;13.42;44.65;100755.95;1738719;82;21027;-58
2023/04/18 08:48:14;;;;;;;7.90;3.08;;;;;;;13.37;45.23;100763.14;1724104;83;20983;-57
2023/04/18 08:50:43;;;;;;;5.17;2.40;;;;;;;13.46;45.81;100762.75;1723714;83;21024;-58
2023/04/18 08:53:11;;;;;;;8.60;2.87;;;;;;;13.59;45.02;100762.77;1717057;83;22036;-59
2023/04/18 08:55:40;;;;;;;8.40;2.55;;;;;;;13.68;44.70;100762.08;1689649;84;21029;-57
2023/04/18 08:58:11;;;;;;;5.25;2.30;;;;;;;13.73;44.58;100757.33;1680130;85;21038;-58
2023/04/18 09:00:39;;;;;;;8.85;2.50;;;;;;;13.80;44.05;100759.55;1654763;86;21470;-58
2023/04/18 09:03:09;;;;;;;7.70;2.72;;;;;;;13.85;43.63;100759.24;1688363;84;21014;-58
2023/04/18 09:05:39;;;;;;;9.85;3.08;;;;;;;13.93;43.81;100754.06;1649441;85;21477;-59
2023/04/18 09:08:25;;;;;;;7.60;2.40;;;;;;;14.03;43.63;100748.13;1703494;84;21005;-58
2023/04/18 09:10:53;;;;;;;8.13;2.40;;;;;;;14.12;43.09;100751.83;1670515;85;21007;-59
2023/04/18 09:13:46;;;;;;;6.33;2.77;;;;;;;14.20;43.24;100746.64;1670474;84;21779;-57
2023/04/18 09:16:08;;;;;;;9.05;2.45;;;;;;;14.23;42.62;100742.92;1654594;86;21511;-59
2023/04/18 09:18:37;;;;;;;7.65;3.00;;;;;;;14.25;42.79;100742.71;1678685;84;21034;-56
2023/04/18 09:21:20;;;;;;;7.33;2.40;;;;;;;14.24;42.73;100737.73;1681044;85;21316;-57
2023/04/18 09:23:49;;;;;;;5.37;2.10;;;;;;;14.19;42.44;100732.54;1683576;84;21062;-58
2023/04/18 09:26:33;;;;;;;7.53;2.75;;;;;;;14.10;42.84;100731.91;1683122;85;21485;-59
2023/04/18 09:29:02;;;;;;;9.88;2.80;;;;;;;14.09;43.06;100733.50;1667090;85;21031;-56
2023/04/18 09:31:31;;;;;;;5.50;2.50;;;;;;;14.06;43.06;100727.88;1664086;86;21048;-59
2023/04/18 09:34:01;;;;;;;6.90;2.75;;;;;;;14.09;43.47;100724.70;1674623;84;21064;-59
2023/04/18 09:36:31;;;;;;;11.12;2.70;;;;;;;14.20;43.50;100735.08;1724965;83;21056;-57
2023/04/18 09:39:00;;;;;;;6.53;2.42;;;;;;;14.31;43.32;100732.23;1721055;83;21589;-58
2023/04/18 09:41:30;;;;;;;8.28;2.50;;;;;;;14.38;42.73;100737.21;1671444;86;21028;-59
2023/04/18 09:44:13;;;;;;;5.25;2.27;;;;;;;14.42;43.36;100728.86;1688398;85;21447;-57
2023/04/18 09:46:45;;;;;;;4.80;2.37;;;;;;;14.50;41.95;100724.50;1688356;85;21096;-57
2023/04/18 09:49:15;;;;;;;6.55;2.30;;;;;;;14.55;42.66;100737.11;1688513;85;21119;-57
2023/04/18 09:51:46;;;;;;;4.47;2.30;;;;;;;14.59;42.56;100722.35;1688503;85;21484;-57
2023/04/18 09:54:19;;;;;;;3.55;1.80;;;;;;;14.64;42.33;100725.31;1688958;85;21152;-57
2023/04/18 09:56:52;;;;;;;5.42;1.92;;;;;;;14.69;41.85;100731.55;1734965;83;21027;-57
2023/04/18 09:59:32;;;;;;;5.87;2.12;;;;;;;14.73;41.51;100719.02;1735565;82;21024;-57
2023/04/18 10:02:02;;;;;;;6.58;2.33;;;;;;;14.72;41.00;100715.42;1722655;83;21530;-58
2023/04/18 10:04:31;;;;;;;5.72;2.10;;;;;;;14.75;41.09;100716.89;1716332;83;21005;-57
2023/04/18 10:07:00;;;;;;;7.20;1.80;;;;;;;14.84;40.55;100723.33;1693742;83;21127;-58
2023/04/18 10:09:31;;;;;;;5.58;1.70;;;;;;;14.88;39.89;100712.17;1702698;83;21066;-58
2023/04/18 10:12:01;;;;;;;8.03;1.80;;;;;;;14.90;39.61;100705.91;1708864;83;21056;-56
2023/04/18 10:14:30;;;;;;;4.03;1.80;;;;;;;14.91;40.27;100703.99;1714821;83;21562;-58
2023/04/18 10:16:58;;;;;;;5.90;2.08;;;;;;;14.95;40.05;100703.02;1703060;84;21184;-57
2023/04/18 10:19:28;;;;;;;8.63;2.02;;;;;;;14.95;39.93;100703.87;1718117;83;21417;-58
2023/04/18 10:21:59;;;;;;;11.38;2.50;;;;;;;14.98;39.53;100704.00;1715390;83;21506;-57
2023/04/18 10:24:56;;;;;;;6.67;2.08;;;;;;;15.01;39.13;100696.66;1715746;83;21005;-57
2023/04/18 10:28:01;;;;;;;7.85;2.40;;;;;;;15.06;38.66;100706.50;1716700;83;21439;-58
2023/04/18 10:30:44;;;;;;;10.23;2.95;;;;;;;15.06;37.18;100705.13;1711924;83;21470;-57
2023/04/18 10:33:32;;;;;;;10.90;2.58;;;;;;;15.02;37.68;100701.11;1718426;83;21031;-58
2023/04/18 10:36:14;;;;;;;16.40;2.50;;;;;;;14.99;37.79;100699.64;1718381;83;21019;-58
2023/04/18 10:38:50;;;;;;;4.37;1.67;;;;;;;14.99;37.89;100705.16;1718320;83;21023;-57
2023/04/18 10:41:31;;;;;;;8.20;2.37;;;;;;;15.00;37.64;100702.71;1718163;83;21567;-56
2023/04/18 10:44:17;;;;;;;7.33;1.77;;;;;;;15.00;37.53;100708.77;1718590;83;21098;-58
2023/04/18 10:47:02;;;;;;;6.58;1.70;;;;;;;14.93;37.08;100717.03;1718405;83;21035;-58
2023/04/18 10:49:32;;;;;;;5.90;1.60;;;;;;;14.83;37.40;100717.50;1718609;83;21087;-58
2023/04/18 10:52:01;;;;;;;12.45;1.87;;;;;;;14.73;36.62;100710.22;1718416;83;21447;-58
2023/04/18 10:54:59;;;;;;;9.33;2.47;;;;;;;14.61;37.06;100712.48;1718419;83;21533;-57
2023/04/18 10:57:41;;;;;;;10.80;2.27;;;;;;;14.53;37.21;100719.92;1718682;83;21100;-57
2023/04/18 11:00:11;;;;;;;6.67;1.92;;;;;;;14.43;37.42;100727.80;1717361;83;21031;-57
2023/04/18 11:02:42;;;;;;;8.18;1.65;;;;;;;14.34;37.69;100720.78;1712097;83;21028;-57
2023/04/18 11:05:11;;;;;;;6.90;1.92;;;;;;;14.24;37.72;100721.72;1717883;83;21499;-57
2023/04/18 11:07:47;;;;;;;8.85;2.75;;;;;;;14.14;37.91;100718.02;1718554;83;21447;-57
2023/04/18 11:10:25;;;;;;;6.92;2.27;;;;;;;14.08;39.02;100731.80;1718615;83;21111;-57
2023/04/18 11:12:54;;;;;;;7.58;1.70;;;;;;;14.03;38.82;100728.84;1718317;83;21231;-57
2023/04/18 11:15:24;;;;;;;5.42;2.10;;;;;;;13.93;38.50;100730.11;1718295;83;21090;-58
2023/04/18 11:18:03;;;;;;;6.90;2.12;;;;;;;13.81;40.33;100729.05;1718038;83;21447;-56
2023/04/18 11:20:38;;;;;;;12.07;2.50;;;;;;;13.71;41.75;100723.64;1717748;83;21011;-57
2023/04/18 11:23:23;;;;;;;9.28;1.90;;;;;;;13.59;44.75;100731.64;1718172;83;21031;-59
2023/04/18 11:25:53;;;;;;;4.17;1.35;;;;;;;13.43;44.95;100722.40;1718543;83;21431;-57
2023/04/18 11:28:23;;;;;;;8.23;1.75;;;;;;;13.27;45.40;100723.62;1696149;83;21184;-58
2023/04/18 11:30:59;;;;;;;6.47;2.10;;;;;;;13.16;47.68;100729.70;1718453;83;21091;-59
2023/04/18 11:33:28;;;;;;;9.95;1.90;;;;;;;13.03;47.84;100723.62;1718403;83;21095;-61
2023/04/18 11:35:58;;;;;;;9.55;2.72;;;;;;;12.88;49.11;100717.40;1703110;83;21102;-61
2023/04/18 11:38:29;;;;;;;11.40;3.20;;;;;;;12.77;49.75;100710.58;1700437;84;21504;-58
2023/04/18 11:41:01;;;;;;;12.45;3.85;;;;;;;12.71;52.01;100714.16;1700785;84;21079;-59
2023/04/18 11:43:32;;;;;;;11.43;3.22;;;;;;;12.66;54.65;100715.29;1704050;83;21044;-59